createdAt,value
2018-09-18T00:04:16.244Z,300.9
2018-09-18T00:09:24.374Z,300.8
2018-09-18T00:14:32.238Z,300.8
2018-09-18T00:24:48.247Z,300.8
2018-09-18T00:29:56.250Z,300.6
2018-09-18T00:35:04.260Z,300.6
2018-09-18T00:40:12.256Z,300.9
2018-09-18T00:45:20.314Z,300.9
2018-09-18T00:50:28.321Z,300.7
2018-09-18T00:55:36.284Z,300.6
2018-09-18T01:00:44.286Z,300.6
2018-09-18T01:05:52.296Z,300.6
2018-09-18T01:16:08.287Z,300.8
2018-09-18T01:21:16.348Z,300.8
2018-09-18T01:26:24.302Z,300.7
2018-09-18T01:31:32.313Z,300.7
2018-09-18T01:36:40.321Z,300.7
2018-09-18T01:41:48.367Z,300.7
2018-09-18T01:46:56.345Z,300.7
2018-09-18T01:52:04.351Z,300.7
2018-09-18T01:57:12.319Z,300.7
2018-09-18T02:02:20.291Z,300.6
2018-09-18T02:07:28.293Z,300.6
2018-09-18T02:12:36.361Z,300.7
2018-09-18T02:17:44.382Z,300.8
2018-09-18T02:22:52.452Z,300.8
2018-09-18T02:28:00.400Z,300.7
2018-09-18T02:33:08.450Z,300.6
2018-09-18T02:38:16.488Z,300.7
2018-09-18T02:43:24.635Z,300.7
2018-09-18T02:48:32.580Z,300.8
2018-09-18T02:58:48.642Z,300.8
2018-09-18T03:03:56.658Z,300.7
2018-09-18T03:09:04.968Z,300.7
2018-09-18T03:14:12.740Z,300.8
2018-09-18T03:19:20.788Z,300.8
2018-09-18T03:24:28.798Z,300.9
2018-09-18T03:29:36.869Z,300.7
2018-09-18T03:34:44.925Z,300.8
2018-09-18T03:39:53.037Z,300.8
2018-09-18T03:45:01.034Z,300.8
2018-09-18T03:50:09.002Z,300.9
2018-09-18T03:55:17.025Z,300.8
2018-09-18T04:05:33.063Z,300.9
2018-09-18T04:10:41.134Z,300.8
2018-09-18T04:15:49.196Z,301
2018-09-18T04:20:57.103Z,301
2018-09-18T04:26:05.082Z,300.8
2018-09-18T04:31:13.093Z,300.8
2018-09-18T04:41:29.028Z,300.8
2018-09-18T04:46:37.028Z,300.9
2018-09-18T04:51:44.967Z,300.8
2018-09-18T04:56:52.952Z,301
2018-09-18T05:02:00.927Z,301
2018-09-18T05:07:08.878Z,300.9
2018-09-18T05:12:16.849Z,300.8
2018-09-18T05:17:24.814Z,300.7
2018-09-18T05:22:32.763Z,300.9
2018-09-18T05:27:40.679Z,300.8
2018-09-18T05:32:48.849Z,300.9
2018-09-18T05:38:00.072Z,300.9
2018-09-18T05:43:04.491Z,301
2018-09-18T05:48:12.590Z,301.1
2018-09-18T05:53:20.298Z,301
2018-09-18T05:58:28.274Z,301
2018-09-18T06:03:36.179Z,300.8
2018-09-18T06:08:44.000Z,301.4
2018-09-18T06:13:55.792Z,301.3
